Time;durP1;ratioP1;P1;durP2;ratioP2;P2;SDS_P1;SDS_P2;PMS_P1;PMS_P2;Temp;Humidity;BMP_temperature;BMP_pressure;BME280_temperature;BME280_humidity;BME280_pressure;Samples;Min_cycle;Max_cycle;Signal;HPM_P1;HPM_P2
2022/06/06 00:00:26;;;;;;;65.88;38.25;;;;;;;15.02;97.22;101279.44;5073462;28;20062;-69
2022/06/06 00:02:51;;;;;;;66.50;39.90;;;;;;;14.98;96.96;101276.16;5053382;28;20052;-69
2022/06/06 00:05:17;;;;;;;60.78;39.08;;;;;;;15.00;97.35;101274.22;5073041;28;20483;-68
2022/06/06 00:07:43;;;;;;;66.05;38.90;;;;;;;14.98;97.99;101268.13;5071505;28;20027;-69
2022/06/06 00:10:09;;;;;;;64.32;37.38;;;;;;;14.97;97.28;101288.69;5090941;28;20027;-69
2022/06/06 00:12:36;;;;;;;61.28;36.80;;;;;;;15.04;96.23;101278.38;5073311;28;20038;-69
2022/06/06 00:15:02;;;;;;;59.60;34.08;;;;;;;14.99;95.88;101281.38;5073662;28;20452;-69
2022/06/06 00:17:34;;;;;;;60.35;36.83;;;;;;;14.93;97.41;101286.34;5091814;28;20050;-69
2022/06/06 00:19:59;;;;;;;57.00;36.20;;;;;;;15.01;97.77;101289.31;5090556;28;20035;-69
2022/06/06 00:22:25;;;;;;;61.88;36.17;;;;;;;14.98;96.86;101279.69;5056126;28;20040;-69
2022/06/06 00:24:51;;;;;;;57.40;35.63;;;;;;;14.94;96.74;101278.22;5056521;28;20027;-69
2022/06/06 00:27:17;;;;;;;56.55;34.58;;;;;;;14.96;96.12;101276.25;5090958;28;20051;-68
2022/06/06 00:29:43;;;;;;;63.65;36.20;;;;;;;14.98;97.24;101265.44;5071341;28;20075;-69
2022/06/06 00:35:03;;;;;;;58.28;36.20;;;;;;;14.95;96.41;101252.28;5094488;28;20150;-69
2022/06/06 00:37:31;;;;;;;61.35;35.13;;;;;;;14.95;97.06;101261.16;5099709;28;20066;-69
2022/06/06 00:39:57;;;;;;;62.05;36.85;;;;;;;14.92;95.86;101256.03;5091701;28;20035;-69
2022/06/06 00:42:28;;;;;;;58.22;35.83;;;;;;;14.94;96.50;101253.22;5090675;28;20403;-69
2022/06/06 00:45:22;;;;;;;62.53;35.47;;;;;;;15.01;96.21;101256.31;5091082;28;20028;-69
2022/06/06 00:48:08;;;;;;;62.97;35.85;;;;;;;15.02;96.14;101253.50;5072427;28;20544;-69
2022/06/06 00:50:53;;;;;;;61.25;34.67;;;;;;;14.98;95.62;101246.69;5091050;28;20036;-69
2022/06/06 00:53:27;;;;;;;60.80;35.47;;;;;;;15.01;95.29;101253.63;5090937;28;20027;-69
2022/06/06 00:55:59;;;;;;;59.63;37.10;;;;;;;14.95;95.98;101247.75;5090364;28;20035;-69
2022/06/06 00:58:28;;;;;;;65.00;38.70;;;;;;;14.98;96.50;101246.69;5090195;28;20024;-69
2022/06/06 01:00:54;;;;;;;61.00;36.53;;;;;;;14.98;96.44;101246.69;5092245;28;20024;-69
2022/06/06 01:03:24;;;;;;;63.30;37.83;;;;;;;14.98;96.50;101238.66;5090409;28;20540;-69
2022/06/06 01:05:53;;;;;;;62.88;39.08;;;;;;;14.95;95.85;101250.44;5090859;28;20028;-69
2022/06/06 01:08:20;;;;;;;66.90;42.35;;;;;;;14.99;96.05;101248.38;5072628;28;20020;-69
2022/06/06 01:10:46;;;;;;;72.32;42.78;;;;;;;15.01;96.46;101253.63;5091077;28;20166;-69
2022/06/06 01:13:14;;;;;;;69.93;42.58;;;;;;;15.01;96.26;101253.63;5090561;28;20031;-69
2022/06/06 01:16:04;;;;;;;74.55;44.08;;;;;;;15.13;96.07;101245.53;5090889;28;20081;-69
2022/06/06 01:18:58;;;;;;;75.03;46.13;;;;;;;15.02;95.76;101253.50;5072507;28;20107;-69
2022/06/06 01:21:35;;;;;;;72.90;44.35;;;;;;;15.02;95.64;101252.66;5091245;28;20024;-69
2022/06/06 01:24:33;;;;;;;71.68;44.40;;;;;;;14.91;96.01;101248.97;5091006;28;20028;-69
2022/06/06 01:27:08;;;;;;;73.97;45.47;;;;;;;14.93;96.25;101238.13;5090299;28;20115;-69
2022/06/06 01:29:38;;;;;;;76.30;46.42;;;;;;;14.94;96.43;101250.53;5091098;28;20532;-69
2022/06/06 01:32:09;;;;;;;75.68;45.47;;;;;;;14.90;95.83;101257.13;5093174;28;20066;-69
2022/06/06 01:34:38;;;;;;;72.65;46.45;;;;;;;14.92;97.53;101253.34;5094016;28;20024;-69
2022/06/06 01:37:27;;;;;;;73.68;44.55;;;;;;;14.99;97.19;101251.06;5092313;28;20550;-69
2022/06/06 01:39:55;;;;;;;75.13;46.83;;;;;;;14.92;97.21;101257.88;5088761;28;20066;-69
2022/06/06 01:42:28;;;;;;;70.00;43.10;;;;;;;14.91;97.08;101250.78;5089966;28;20048;-69
2022/06/06 01:45:05;;;;;;;74.35;45.85;;;;;;;14.94;97.52;101255.91;5090570;28;20043;-69
2022/06/06 01:47:37;;;;;;;66.40;42.85;;;;;;;14.91;97.39;101261.50;5089857;28;20059;-69
2022/06/06 01:50:05;;;;;;;67.43;42.65;;;;;;;14.86;97.56;101252.97;5090280;28;20028;-69
2022/06/06 01:52:49;;;;;;;65.60;40.92;;;;;;;14.90;98.28;101254.44;5090389;28;20024;-69
2022/06/06 01:55:15;;;;;;;64.55;40.17;;;;;;;14.74;97.34;101226.13;5090441;28;20028;-69
2022/06/06 01:57:41;;;;;;;63.38;38.55;;;;;;;14.68;97.28;101215.03;5071804;28;20073;-69
2022/06/06 02:00:07;;;;;;;55.65;35.08;;;;;;;14.90;97.24;101243.72;5093107;28;20445;-69
2022/06/06 02:02:33;;;;;;;58.45;35.58;;;;;;;14.83;98.12;101239.81;5094240;28;20560;-69
2022/06/06 02:05:00;;;;;;;54.30;34.78;;;;;;;14.89;98.20;101236.66;5093896;28;20077;-69
2022/06/06 02:07:26;;;;;;;57.92;34.80;;;;;;;14.89;97.91;101237.53;5059057;28;20035;-69
2022/06/06 02:09:52;;;;;;;55.00;33.83;;;;;;;14.93;97.93;101222.91;5076009;28;20024;-69
2022/06/06 02:12:20;;;;;;;53.70;32.58;;;;;;;14.89;96.66;101221.44;5075503;28;20020;-69
2022/06/06 02:14:47;;;;;;;53.25;33.05;;;;;;;14.86;97.07;101228.88;5058712;28;20481;-69
2022/06/06 02:17:12;;;;;;;48.63;31.23;;;;;;;14.90;96.83;101222.28;5075772;28;20074;-69
2022/06/06 02:19:38;;;;;;;51.22;32.70;;;;;;;14.91;98.20;101224.00;5093892;28;20495;-69
2022/06/06 02:22:04;;;;;;;57.00;33.20;;;;;;;14.86;97.06;101231.53;5075461;28;20085;-69
2022/06/06 02:24:30;;;;;;;53.78;32.53;;;;;;;14.80;97.07;101238.22;5093780;28;20035;-69
2022/06/06 02:26:57;;;;;;;52.67;33.00;;;;;;;14.78;97.13;101232.09;5058814;28;20039;-69
2022/06/06 02:29:23;;;;;;;50.22;32.80;;;;;;;14.77;97.63;101236.63;5093382;28;20024;-69
2022/06/06 02:31:49;;;;;;;58.67;34.50;;;;;;;14.81;97.18;101239.91;5093944;28;20024;-69
2022/06/06 02:34:15;;;;;;;54.90;34.13;;;;;;;14.85;97.94;101235.16;5075716;28;20058;-69
2022/06/06 02:36:40;;;;;;;59.03;34.85;;;;;;;14.79;97.68;101230.28;5093249;28;20042;-69
2022/06/06 02:39:06;;;;;;;51.13;32.78;;;;;;;14.80;96.90;101234.69;5075292;28;20032;-69
2022/06/06 02:41:31;;;;;;;56.45;35.33;;;;;;;14.82;97.89;101233.56;5092991;28;20034;-69
2022/06/06 02:43:57;;;;;;;56.17;33.35;;;;;;;14.76;97.09;101223.31;5057927;28;20067;-69
2022/06/06 02:46:23;;;;;;;48.75;32.58;;;;;;;14.85;96.78;101225.31;5074713;28;20271;-69
2022/06/06 02:48:49;;;;;;;51.35;32.25;;;;;;;14.78;96.48;101224.06;5093209;28;20036;-69
2022/06/06 02:51:14;;;;;;;50.80;32.30;;;;;;;14.81;97.15;101228.34;5093240;28;20020;-69
2022/06/06 02:53:40;;;;;;;56.85;34.35;;;;;;;14.74;97.04;101231.47;5093058;28;20372;-69
2022/06/06 02:56:06;;;;;;;61.42;35.00;;;;;;;14.73;96.46;101223.56;5093089;28;20029;-69
2022/06/06 02:58:34;;;;;;;59.80;34.53;;;;;;;14.72;97.08;101228.06;5074157;28;20032;-69
2022/06/06 03:01:04;;;;;;;60.83;36.03;;;;;;;14.70;96.23;101229.13;5093114;28;20036;-69
2022/06/06 03:03:33;;;;;;;55.90;35.35;;;;;;;14.67;96.39;101224.84;5074372;28;20495;-69
2022/06/06 03:06:04;;;;;;;57.90;34.93;;;;;;;14.69;95.92;101230.97;5075612;28;20032;-69
2022/06/06 03:08:52;;;;;;;60.60;37.38;;;;;;;14.81;95.01;101214.97;5092672;28;20285;-69
2022/06/06 03:11:54;;;;;;;57.33;34.83;;;;;;;14.73;95.18;101232.44;5091668;28;20020;-69
2022/06/06 03:14:57;;;;;;;58.78;35.97;;;;;;;14.75;94.65;101227.81;5092423;28;20042;-69
2022/06/06 03:20:47;;;;;;;57.15;34.58;;;;;;;14.58;95.16;101228.22;5092710;28;20039;-69
2022/06/06 03:23:31;;;;;;;59.65;33.97;;;;;;;14.56;94.14;101242.69;5074247;28;20020;-69
2022/06/06 03:26:20;;;;;;;54.45;33.83;;;;;;;14.57;94.47;101241.72;5074461;28;20081;-69
2022/06/06 03:28:49;;;;;;;55.35;34.22;;;;;;;14.51;94.66;101241.22;5073717;28;20024;-69
2022/06/06 03:31:32;;;;;;;55.25;32.97;;;;;;;14.53;94.97;101244.63;5092709;28;20024;-69
2022/06/06 03:34:19;;;;;;;51.17;32.63;;;;;;;14.49;93.56;101248.47;5074558;28;20483;-69
2022/06/06 03:36:51;;;;;;;53.30;34.40;;;;;;;14.44;94.62;101242.59;5092192;28;20073;-69
2022/06/06 03:39:41;;;;;;;45.20;30.35;;;;;;;14.44;93.56;101244.41;5092076;28;20036;-69
2022/06/06 03:42:07;;;;;;;45.42;29.52;;;;;;;14.36;92.49;101239.63;5091213;28;20356;-69
2022/06/06 03:44:40;;;;;;;48.15;30.75;;;;;;;14.32;93.36;101238.13;5091921;28;20040;-69
2022/06/06 03:47:31;;;;;;;45.20;29.33;;;;;;;14.32;93.15;101249.72;5091884;28;20019;-69
2022/06/06 03:50:21;;;;;;;42.95;29.17;;;;;;;14.30;93.21;101251.63;5092191;28;20036;-69
2022/06/06 03:52:55;;;;;;;44.60;28.92;;;;;;;14.27;92.83;101265.22;5092016;28;20062;-69
2022/06/06 03:55:42;;;;;;;41.45;27.10;;;;;;;14.36;92.03;101244.13;5091710;28;20027;-69
2022/06/06 03:58:12;;;;;;;39.95;27.05;;;;;;;14.23;93.18;101255.69;5091162;28;20028;-69
2022/06/06 04:00:39;;;;;;;44.00;27.35;;;;;;;14.15;92.57;101257.22;5091825;28;20138;-69
2022/06/06 04:03:05;;;;;;;40.20;26.15;;;;;;;14.12;93.06;101255.63;5073011;28;20453;-69
2022/06/06 04:05:36;;;;;;;35.95;23.65;;;;;;;14.05;91.89;101254.34;5073296;28;20024;-69
2022/06/06 04:08:02;;;;;;;38.80;26.08;;;;;;;14.06;91.83;101262.28;5091427;28;20035;-69
2022/06/06 04:10:41;;;;;;;36.58;24.58;;;;;;;14.00;92.45;101261.84;5091389;28;20459;-69
2022/06/06 04:13:38;;;;;;;38.53;24.50;;;;;;;14.01;92.81;101259.06;5089965;28;20016;-69
2022/06/06 04:16:28;;;;;;;35.47;22.90;;;;;;;14.03;91.43;101269.63;5046314;28;20044;-69
2022/06/06 04:19:07;;;;;;;35.53;23.58;;;;;;;13.97;91.61;101270.06;5073276;28;20016;-69
2022/06/06 04:22:13;;;;;;;35.40;22.55;;;;;;;13.97;91.29;101272.75;5102012;28;20028;-69
2022/06/06 04:25:20;;;;;;;37.20;22.83;;;;;;;13.91;91.55;101268.69;5076938;28;20016;-69
2022/06/06 04:27:50;;;;;;;38.20;22.65;;;;;;;13.98;92.03;101279.81;4992373;28;20121;-69
2022/06/06 04:30:51;;;;;;;35.75;22.33;;;;;;;13.91;92.32;101283.88;5080178;28;20036;-69
2022/06/06 04:33:23;;;;;;;33.95;20.63;;;;;;;13.89;90.36;101286.69;5009121;28;20458;-69
2022/06/06 04:36:04;;;;;;;29.67;20.83;;;;;;;13.81;89.42;101281.00;5088281;28;20047;-68
2022/06/06 04:38:59;;;;;;;29.95;20.70;;;;;;;13.85;88.72;101287.84;5111442;28;20394;-69
2022/06/06 04:41:37;;;;;;;29.58;19.80;;;;;;;13.89;88.85;101294.69;5110900;28;20023;-69
2022/06/06 04:44:47;;;;;;;26.75;19.38;;;;;;;13.95;89.82;101296.09;5110667;28;20386;-69
2022/06/06 04:47:24;;;;;;;30.55;21.17;;;;;;;13.86;88.74;101285.06;5008843;28;20037;-69
2022/06/06 04:49:52;;;;;;;26.80;19.63;;;;;;;13.86;88.18;101287.75;5085921;28;20075;-69
2022/06/06 04:52:19;;;;;;;27.98;20.40;;;;;;;13.84;87.70;101283.47;5072884;28;20059;-69
2022/06/06 04:54:48;;;;;;;31.48;21.63;;;;;;;13.91;87.11;101298.09;5090916;28;20030;-69
2022/06/06 04:57:15;;;;;;;28.85;21.90;;;;;;;13.82;86.60;101280.03;5090420;28;20032;-69
2022/06/06 04:59:42;;;;;;;26.15;21.88;;;;;;;13.93;84.83;101279.28;5090751;28;20430;-69
2022/06/06 05:02:08;;;;;;;28.83;23.52;;;;;;;13.78;85.65;101278.53;5090803;28;20379;-69
2022/06/06 05:04:40;;;;;;;33.40;24.45;;;;;;;13.77;85.32;101277.69;5091015;28;20027;-69
2022/06/06 05:07:46;;;;;;;29.33;24.05;;;;;;;13.85;86.56;101287.84;5090633;28;20032;-69
2022/06/06 05:10:27;;;;;;;32.35;23.48;;;;;;;13.82;87.13;101283.59;5053895;28;20089;-69
2022/06/06 05:13:02;;;;;;;26.88;22.30;;;;;;;13.79;86.75;101280.25;5090083;28;20368;-69
2022/06/06 05:16:03;;;;;;;25.50;22.80;;;;;;;13.94;85.17;101283.66;5072866;28;20023;-69
2022/06/06 05:18:50;;;;;;;26.17;22.63;;;;;;;13.89;85.49;101284.00;5090587;28;20035;-69
2022/06/06 05:21:34;;;;;;;27.02;22.15;;;;;;;13.91;84.71;101292.75;5090502;28;20024;-69
2022/06/06 05:24:33;;;;;;;25.45;22.30;;;;;;;14.01;85.12;101299.19;5090143;28;20032;-69
2022/06/06 05:27:31;;;;;;;25.45;21.65;;;;;;;14.14;85.09;101290.28;5071960;28;20383;-69
2022/06/06 05:30:07;;;;;;;26.38;20.80;;;;;;;14.12;83.67;101287.72;5084132;28;20040;-69
2022/06/06 05:33:05;;;;;;;24.65;20.13;;;;;;;14.20;83.79;101301.41;5090391;28;20035;-69
2022/06/06 05:35:49;;;;;;;25.77;21.27;;;;;;;14.27;83.00;101294.66;5094435;28;20062;-69
2022/06/06 05:38:29;;;;;;;23.83;19.65;;;;;;;14.28;82.41;101292.84;5094113;28;20024;-69
2022/06/06 05:41:16;;;;;;;23.77;20.42;;;;;;;14.25;82.78;101295.72;5094343;28;20549;-70
2022/06/06 05:43:42;;;;;;;28.08;20.42;;;;;;;14.21;82.01;101302.28;5099033;28;20031;-69
2022/06/06 05:46:44;;;;;;;21.92;19.52;;;;;;;14.12;82.73;101303.78;5094153;28;20106;-69
2022/06/06 05:49:19;;;;;;;23.55;19.35;;;;;;;14.07;82.27;101305.91;5075566;28;20119;-69
2022/06/06 05:51:49;;;;;;;20.17;18.08;;;;;;;14.15;80.88;101308.03;5093675;28;20023;-69
2022/06/06 05:54:15;;;;;;;21.98;19.67;;;;;;;14.15;82.46;101306.25;5094124;28;20038;-69
2022/06/06 05:56:54;;;;;;;21.13;18.17;;;;;;;14.18;81.56;101306.03;5075588;28;20035;-69
2022/06/06 05:59:40;;;;;;;20.88;18.65;;;;;;;14.19;80.79;101305.03;5098351;28;20230;-69
2022/06/06 06:02:41;;;;;;;23.15;19.02;;;;;;;14.22;81.68;101304.81;5093630;28;20067;-69
2022/06/06 06:05:27;;;;;;;21.70;19.48;;;;;;;14.28;81.85;101309.75;5073787;28;20156;-69
2022/06/06 06:08:27;;;;;;;26.42;19.08;;;;;;;14.37;81.70;101304.69;5093638;28;20024;-69
2022/06/06 06:11:24;;;;;;;24.90;18.43;;;;;;;14.50;81.35;101308.19;5093888;28;20032;-69
2022/06/06 06:13:56;;;;;;;18.00;14.85;;;;;;;14.53;79.08;101305.34;5068285;28;20075;-69
2022/06/06 06:16:28;;;;;;;22.45;17.13;;;;;;;14.61;81.44;101315.50;5093363;28;20032;-69
2022/06/06 06:19:06;;;;;;;14.63;11.73;;;;;;;14.64;78.21;101309.91;5093632;28;20052;-69
2022/06/06 06:21:39;;;;;;;16.40;11.40;;;;;;;14.64;78.18;101304.56;5093147;28;20056;-69
2022/06/06 06:24:25;;;;;;;11.60;9.38;;;;;;;14.69;78.09;101311.28;5093471;28;20467;-69
2022/06/06 06:26:54;;;;;;;11.00;9.05;;;;;;;14.79;79.04;101310.59;5092806;28;20020;-69
2022/06/06 06:29:39;;;;;;;11.63;7.45;;;;;;;14.89;76.98;101325.91;5093383;28;20285;-69
2022/06/06 06:32:20;;;;;;;10.88;6.90;;;;;;;14.96;76.90;101329.81;5093157;28;20063;-69
2022/06/06 06:35:19;;;;;;;9.05;6.57;;;;;;;15.05;76.59;101328.28;5093189;28;20410;-69
2022/06/06 06:38:10;;;;;;;8.35;6.45;;;;;;;15.09;75.19;101328.91;5093256;28;20585;-69
2022/06/06 06:41:12;;;;;;;11.13;6.43;;;;;;;15.11;75.28;101332.34;5090685;28;20593;-70
2022/06/06 06:44:07;;;;;;;9.40;5.55;;;;;;;15.24;76.66;101332.31;5090348;28;20482;-69
2022/06/06 06:46:38;;;;;;;11.63;6.03;;;;;;;15.09;75.32;101329.78;5085994;28;20063;-69
2022/06/06 06:49:31;;;;;;;6.88;5.18;;;;;;;15.15;76.33;101333.84;5075735;28;20039;-69
2022/06/06 06:52:34;;;;;;;7.57;5.25;;;;;;;15.26;75.27;101347.25;5092772;28;20088;-69
2022/06/06 06:55:19;;;;;;;8.00;4.90;;;;;;;15.09;73.61;101344.97;5092999;28;20020;-70
2022/06/06 06:58:12;;;;;;;7.20;4.40;;;;;;;15.25;74.56;101344.72;5074303;28;20032;-70
2022/06/06 07:00:47;;;;;;;7.70;4.43;;;;;;;15.51;71.96;101354.34;5075542;28;20039;-70
2022/06/06 07:09:42;;;;;;;5.07;3.58;;;;;;;15.89;71.16;101343.38;5092858;28;20081;-69
2022/06/06 07:12:15;;;;;;;5.10;2.63;;;;;;;15.98;70.32;101332.91;5092127;28;20086;-69
2022/06/06 07:14:49;;;;;;;4.68;3.30;;;;;;;16.12;69.56;101352.31;5092477;28;20035;-70
2022/06/06 07:17:18;;;;;;;6.05;3.03;;;;;;;16.29;69.25;101342.91;5092169;28;20449;-70
2022/06/06 07:20:03;;;;;;;5.43;2.50;;;;;;;16.42;70.02;101344.66;5092502;28;20499;-70
2022/06/06 07:25:26;;;;;;;4.72;2.83;;;;;;;16.28;66.55;101359.16;5095470;28;20096;-70
2022/06/06 07:27:52;;;;;;;7.03;3.22;;;;;;;16.34;64.72;101358.66;5091700;28;20439;-70
2022/06/06 07:30:21;;;;;;;5.00;2.40;;;;;;;16.40;65.11;101354.66;5092093;28;20126;-70
2022/06/06 07:33:13;;;;;;;4.40;2.77;;;;;;;16.54;65.17;101359.78;5073899;28;20065;-70
2022/06/06 07:35:55;;;;;;;2.60;2.40;;;;;;;16.67;64.80;101365.00;5092700;28;20111;-70
2022/06/06 07:38:39;;;;;;;3.85;2.15;;;;;;;16.83;64.80;101368.22;5091301;28;20486;-70
2022/06/06 07:41:42;;;;;;;7.22;2.33;;;;;;;17.01;65.48;101372.06;5092041;28;20028;-70
2022/06/06 07:44:33;;;;;;;4.35;2.30;;;;;;;17.16;63.53;101371.78;5073379;28;20028;-69
2022/06/06 07:47:18;;;;;;;1.98;1.77;;;;;;;17.02;64.81;101364.84;5090973;28;20020;-70
2022/06/06 07:49:46;;;;;;;4.97;2.20;;;;;;;16.95;62.50;101374.41;5091398;28;20111;-70
2022/06/06 07:52:17;;;;;;;4.90;2.20;;;;;;;17.02;64.18;101370.22;5091877;28;20062;-70
2022/06/06 07:55:13;;;;;;;5.68;2.60;;;;;;;17.01;63.49;101371.22;5073720;28;20110;-69
2022/06/06 07:58:08;;;;;;;3.13;1.85;;;;;;;16.89;63.73;101370.41;5091001;28;20020;-69
2022/06/06 08:00:34;;;;;;;4.72;2.30;;;;;;;16.76;62.21;101370.50;5090355;28;20059;-70
2022/06/06 08:03:14;;;;;;;3.40;1.90;;;;;;;16.67;64.28;101363.16;5072908;28;20063;-70
2022/06/06 08:06:05;;;;;;;3.25;2.00;;;;;;;16.83;63.66;101372.72;5091809;28;20027;-70
2022/06/06 08:09:02;;;;;;;5.63;2.13;;;;;;;17.14;63.24;101373.75;5104202;28;20023;-69
2022/06/06 08:12:03;;;;;;;5.80;1.90;;;;;;;17.29;64.22;101364.41;5093936;28;20118;-69
2022/06/06 08:14:49;;;;;;;2.33;1.80;;;;;;;17.18;61.56;101368.00;5091739;28;20107;-70
2022/06/06 08:17:34;;;;;;;2.53;1.60;;;;;;;16.94;61.73;101378.06;5090828;28;20035;-70
2022/06/06 08:20:09;;;;;;;2.83;1.67;;;;;;;16.86;62.78;101359.06;5089426;28;20023;-70
2022/06/06 08:22:42;;;;;;;2.65;1.75;;;;;;;16.77;62.75;101368.72;5072835;28;20077;-70
2022/06/06 08:25:14;;;;;;;1.95;1.80;;;;;;;16.78;63.74;101359.66;5091199;28;20391;-69
2022/06/06 08:27:46;;;;;;;3.40;1.67;;;;;;;16.67;63.60;101360.47;5090681;28;20036;-70
2022/06/06 08:30:12;;;;;;;2.33;1.73;;;;;;;16.71;63.54;101355.75;5090425;28;20483;-69
2022/06/06 08:32:40;;;;;;;4.65;2.05;;;;;;;16.64;63.66;101357.19;5090915;28;20024;-70
2022/06/06 08:35:06;;;;;;;5.35;1.83;;;;;;;16.87;64.41;101355.38;5073543;28;20063;-70
2022/06/06 08:37:53;;;;;;;3.63;1.90;;;;;;;16.88;63.29;101355.22;5056157;28;20055;-69
2022/06/06 08:40:55;;;;;;;3.92;2.00;;;;;;;16.98;64.23;101349.97;5091157;28;20023;-69
2022/06/06 08:43:49;;;;;;;4.30;1.60;;;;;;;17.01;63.02;101353.25;5091234;28;20447;-69
2022/06/06 08:46:41;;;;;;;2.95;1.90;;;;;;;16.95;62.08;101352.91;5090711;28;20028;-69
2022/06/06 08:52:33;;;;;;;4.90;2.97;;;;;;;17.04;61.69;101344.09;5091013;28;20092;-69
2022/06/06 08:55:16;;;;;;;4.85;2.60;;;;;;;16.85;61.27;101350.09;5091140;28;20497;-70
2022/06/06 08:58:13;;;;;;;6.18;2.38;;;;;;;16.77;63.16;101340.00;5090587;28;20085;-70
2022/06/06 09:01:04;;;;;;;5.18;1.95;;;;;;;16.89;63.45;101348.91;5072979;28;20077;-70
2022/06/06 09:03:51;;;;;;;4.70;2.00;;;;;;;17.06;63.36;101341.25;5090535;28;20048;-70
2022/06/06 09:06:22;;;;;;;6.43;2.85;;;;;;;17.44;61.82;101344.31;5090146;28;20036;-70
2022/06/06 09:08:57;;;;;;;4.03;2.22;;;;;;;17.55;62.91;101353.31;5091727;28;20105;-69
2022/06/06 09:12:12;;;;;;;3.20;1.85;;;;;;;17.46;63.15;101336.97;5095875;28;20024;-70
2022/06/06 09:15:11;;;;;;;3.20;2.13;;;;;;;17.33;62.54;101335.44;5012249;28;20042;-70
2022/06/06 09:18:18;;;;;;;3.92;2.00;;;;;;;17.33;61.78;101322.00;5083542;28;20083;-70
2022/06/06 09:21:10;;;;;;;2.85;1.85;;;;;;;17.22;60.45;101325.59;5065952;28;20411;-70
2022/06/06 09:24:14;;;;;;;4.00;2.08;;;;;;;17.11;61.43;101336.38;5076402;28;20459;-70
2022/06/06 09:27:01;;;;;;;6.35;2.03;;;;;;;16.96;61.31;101339.34;5094275;28;20027;-69
2022/06/06 09:30:03;;;;;;;4.72;2.08;;;;;;;17.08;62.19;101337.47;5076828;28;20977;-69
2022/06/06 09:32:47;;;;;;;2.28;1.70;;;;;;;16.99;60.98;101335.56;5094586;28;20421;-69
2022/06/06 09:35:21;;;;;;;6.85;2.40;;;;;;;17.29;62.76;101328.59;5096692;28;20031;-70
2022/06/06 09:38:11;;;;;;;3.67;2.00;;;;;;;17.66;61.20;101323.66;5094428;28;20520;-69
2022/06/06 09:41:04;;;;;;;1.85;1.70;;;;;;;17.98;59.93;101320.94;5095290;28;20016;-69
2022/06/06 09:43:54;;;;;;;2.08;1.75;;;;;;;18.32;58.48;101326.03;5094180;28;20039;-70
2022/06/06 09:46:26;;;;;;;5.18;1.80;;;;;;;18.50;55.09;101331.63;5077075;28;21320;-70
2022/06/06 09:49:30;;;;;;;2.90;1.75;;;;;;;18.83;57.19;101315.19;5094432;28;20024;-70
2022/06/06 09:52:18;;;;;;;2.72;1.77;;;;;;;19.02;54.38;101316.19;5011404;28;20505;-70
2022/06/06 10:01:19;;;;;;;2.42;1.88;;;;;;;19.87;52.04;101317.31;5093721;28;20088;-70
2022/06/06 10:04:04;;;;;;;2.58;1.70;;;;;;;19.72;51.41;101322.31;5093826;28;20044;-70
2022/06/06 10:06:39;;;;;;;2.05;1.50;;;;;;;19.32;52.24;101303.56;5094017;28;20649;-70
2022/06/06 10:09:27;;;;;;;5.97;1.75;;;;;;;19.10;52.97;101305.56;5093835;28;20364;-70
2022/06/06 10:12:12;;;;;;;5.47;1.80;;;;;;;19.13;54.51;101297.19;5092976;28;20043;-70
2022/06/06 10:14:52;;;;;;;3.78;2.00;;;;;;;18.99;54.21;101301.16;5075819;28;20040;-70
2022/06/06 10:17:54;;;;;;;5.40;1.80;;;;;;;19.14;54.88;101296.19;5093397;28;20024;-70
2022/06/06 10:20:50;;;;;;;5.88;1.70;;;;;;;19.06;52.82;101290.66;5092896;28;20100;-70
2022/06/06 10:23:53;;;;;;;4.50;1.52;;;;;;;19.18;52.61;101289.53;5090976;28;20036;-70
2022/06/06 10:26:40;;;;;;;1.90;1.33;;;;;;;18.91;54.16;101300.13;5093421;28;20024;-70
2022/06/06 10:29:22;;;;;;;4.18;1.80;;;;;;;18.87;54.62;101285.25;5092999;28;20382;-70
2022/06/06 10:32:25;;;;;;;5.90;1.80;;;;;;;19.06;53.58;101294.22;5093362;28;20016;-70
2022/06/06 10:34:57;;;;;;;2.90;1.52;;;;;;;19.50;52.34;101297.31;5094610;28;20403;-70
2022/06/06 10:37:57;;;;;;;4.78;1.48;;;;;;;19.67;50.75;101306.53;5093312;28;20064;-70
2022/06/06 10:40:42;;;;;;;2.28;1.45;;;;;;;19.25;54.40;101295.19;5075414;28;20028;-70
2022/06/06 10:43:28;;;;;;;3.55;1.70;;;;;;;19.19;55.56;101303.88;5094214;28;20134;-70
2022/06/06 10:46:14;;;;;;;2.25;1.50;;;;;;;19.28;55.11;101298.47;5093263;28;20555;-70
2022/06/06 10:49:05;;;;;;;3.13;1.63;;;;;;;19.55;54.34;101296.03;5095992;28;20027;-70
2022/06/06 10:51:52;;;;;;;3.83;1.95;;;;;;;19.74;54.96;101294.19;5093153;28;20035;-70
2022/06/06 10:54:54;;;;;;;7.60;1.75;;;;;;;19.74;52.00;101310.38;5093227;28;20032;-70
2022/06/06 10:58:15;;;;;;;3.92;1.33;;;;;;;19.91;53.29;101279.09;5092207;28;20031;-70
2022/06/06 11:01:17;;;;;;;3.88;1.38;;;;;;;20.09;51.42;101294.50;5075705;28;20024;-70
2022/06/06 11:04:09;;;;;;;4.80;1.50;;;;;;;20.09;51.92;101287.28;5092815;28;20044;-70
2022/06/06 11:07:11;;;;;;;4.00;1.60;;;;;;;20.32;50.85;101292.28;5074991;28;20028;-70
2022/06/06 11:09:48;;;;;;;5.78;1.38;;;;;;;20.55;49.89;101290.06;5093052;28;20509;-70
2022/06/06 11:12:17;;;;;;;2.83;1.20;;;;;;;20.66;50.37;101284.44;5074030;28;20362;-70
2022/06/06 11:14:44;;;;;;;2.40;1.23;;;;;;;20.48;47.79;101292.50;5093005;28;20027;-70
2022/06/06 11:17:12;;;;;;;5.28;1.40;;;;;;;20.42;47.30;101276.88;5092306;28;20032;-70
2022/06/06 11:20:14;;;;;;;2.50;1.20;;;;;;;20.66;46.93;101270.94;5092600;28;20024;-70
2022/06/06 11:22:56;;;;;;;1.88;1.20;;;;;;;20.73;46.85;101273.88;5092236;28;20028;-70
2022/06/06 11:25:22;;;;;;;7.63;1.40;;;;;;;21.06;47.70;101266.94;5074027;28;20035;-70
2022/06/06 11:28:21;;;;;;;5.22;1.15;;;;;;;21.25;47.03;101261.34;5091778;28;20475;-70
2022/06/06 11:30:53;;;;;;;;;;;;;;;21.43;46.73;101258.66;5092371;28;20488;-70
2022/06/06 11:34:03;;;;;;;3.95;1.02;;;;;;;21.18;46.29;101260.28;5091712;28;20019;-70
2022/06/06 11:36:50;;;;;;;4.38;1.67;;;;;;;21.17;46.16;101265.84;5092434;28;20439;-70
2022/06/06 11:39:15;;;;;;;2.15;1.30;;;;;;;21.07;46.14;101268.66;5092099;28;20036;-70
2022/06/06 11:42:07;;;;;;;6.00;1.25;;;;;;;21.21;46.93;101259.13;5091288;28;20035;-70
2022/06/06 11:45:10;;;;;;;5.40;1.40;;;;;;;21.01;46.69;101266.56;5092316;28;20096;-70
2022/06/06 11:47:57;;;;;;;3.40;1.20;;;;;;;20.80;46.22;101277.69;5092023;28;20114;-70
2022/06/06 11:50:47;;;;;;;6.90;1.35;;;;;;;20.40;47.37;101278.88;5074859;28;20038;-70
2022/06/06 11:53:16;;;;;;;5.00;1.27;;;;;;;20.12;47.27;101270.75;5092005;28;20058;-70
2022/06/06 11:56:03;;;;;;;4.95;1.27;;;;;;;20.03;47.21;101274.34;5091868;28;20028;-70
2022/06/06 11:58:46;;;;;;;5.00;1.35;;;;;;;20.05;49.39;101272.34;5091375;28;20024;-70
2022/06/06 12:01:31;;;;;;;6.30;1.58;;;;;;;20.13;49.84;101268.91;5091892;28;20066;-70
2022/06/06 12:04:30;;;;;;;5.13;1.42;;;;;;;20.12;50.54;101264.53;5091788;28;20081;-70
2022/06/06 12:07:10;;;;;;;3.90;1.13;;;;;;;19.95;49.04;101261.59;5091520;28;20486;-70
2022/06/06 12:10:02;;;;;;;3.25;1.23;;;;;;;19.85;50.75;101255.34;5091506;28;20032;-70
2022/06/06 12:12:43;;;;;;;4.10;1.30;;;;;;;19.77;50.00;101274.16;5091123;28;20028;-70
2022/06/06 12:15:20;;;;;;;4.85;1.35;;;;;;;19.72;48.54;101262.94;5091388;28;20430;-70
2022/06/06 12:18:10;;;;;;;3.78;1.55;;;;;;;19.86;50.63;101261.63;5091440;28;20043;-70
2022/06/06 12:21:10;;;;;;;2.65;1.77;;;;;;;19.92;50.51;101266.44;5091429;28;20047;-70
2022/06/06 12:24:10;;;;;;;3.35;1.40;;;;;;;19.99;49.91;101259.44;5090985;28;20032;-70
2022/06/06 12:27:06;;;;;;;3.65;1.27;;;;;;;20.12;50.52;101261.81;5072262;28;20027;-70
2022/06/06 12:30:22;;;;;;;4.65;1.17;;;;;;;20.15;50.28;101256.97;5091086;28;20077;-70
2022/06/06 12:33:07;;;;;;;5.82;1.70;;;;;;;20.00;48.74;101262.97;5091053;28;20019;-70
2022/06/06 12:35:55;;;;;;;4.60;1.17;;;;;;;19.78;49.96;101258.81;5075062;28;20467;-70
2022/06/06 12:38:26;;;;;;;5.47;1.67;;;;;;;19.52;50.86;101257.53;5090795;28;20031;-69
2022/06/06 12:41:12;;;;;;;4.70;1.50;;;;;;;19.25;50.71;101266.38;5072892;28;20028;-69
2022/06/06 12:43:46;;;;;;;7.07;1.60;;;;;;;19.19;50.19;101256.16;5090511;28;20076;-69